createdAt,value
2022-08-19T00:00:12.011Z,18.81
2022-08-19T00:03:00.099Z,18.74
2022-08-19T00:05:28.503Z,18.75
2022-08-19T00:07:56.503Z,18.72
2022-08-19T00:10:25.555Z,18.71
2022-08-19T00:12:53.806Z,18.68
2022-08-19T00:15:23.055Z,18.64
2022-08-19T00:17:52.114Z,18.63
2022-08-19T00:20:22.263Z,18.64
2022-08-19T00:22:51.163Z,18.64
2022-08-19T00:25:30.636Z,18.62
2022-08-19T00:28:00.126Z,18.58
2022-08-19T00:30:31.323Z,18.53
2022-08-19T00:33:00.303Z,18.49
2022-08-19T00:35:29.045Z,18.50
2022-08-19T00:37:58.271Z,18.48
2022-08-19T00:40:26.847Z,18.45
2022-08-19T00:42:54.995Z,18.37
2022-08-19T00:45:27.072Z,18.34
2022-08-19T00:47:55.141Z,18.32
2022-08-19T00:50:25.478Z,18.27
2022-08-19T00:52:54.391Z,18.25
2022-08-19T00:55:26.343Z,18.21
2022-08-19T00:57:57.408Z,18.18
2022-08-19T01:00:27.955Z,18.16
2022-08-19T01:02:56.058Z,18.10
2022-08-19T01:05:30.266Z,18.07
2022-08-19T01:08:01.762Z,17.99
2022-08-19T01:10:36.903Z,17.97
2022-08-19T01:13:06.059Z,17.96
2022-08-19T01:15:41.194Z,17.93
2022-08-19T01:18:13.283Z,17.95
2022-08-19T01:20:42.517Z,17.92
2022-08-19T01:23:10.731Z,17.91
2022-08-19T01:25:53.109Z,17.94
2022-08-19T01:28:34.224Z,17.96
2022-08-19T01:31:26.367Z,17.96
2022-08-19T01:34:00.814Z,17.91
2022-08-19T01:36:38.327Z,17.90
2022-08-19T01:39:10.599Z,17.92
2022-08-19T01:41:38.876Z,17.89
2022-08-19T01:44:17.433Z,17.86
2022-08-19T01:46:49.492Z,17.86
2022-08-19T01:49:20.286Z,17.85
2022-08-19T01:51:50.628Z,17.82
2022-08-19T01:54:22.895Z,17.86
2022-08-19T01:57:02.076Z,17.87
2022-08-19T01:59:32.148Z,17.87
2022-08-19T02:02:00.166Z,17.82
2022-08-19T02:04:28.280Z,17.83
2022-08-19T02:06:56.307Z,17.82
2022-08-19T02:09:24.395Z,17.80
2022-08-19T02:11:52.843Z,17.76
2022-08-19T02:14:20.842Z,17.71
2022-08-19T02:16:49.371Z,17.70
2022-08-19T02:19:18.046Z,17.67
2022-08-19T02:21:46.246Z,17.65
2022-08-19T02:24:14.847Z,17.59
2022-08-19T02:26:42.849Z,17.57
2022-08-19T02:29:11.922Z,17.51
2022-08-19T02:31:39.945Z,17.49
2022-08-19T02:34:07.973Z,17.44
2022-08-19T02:36:36.254Z,17.46
2022-08-19T02:39:11.429Z,17.41
2022-08-19T02:41:40.312Z,17.41
2022-08-19T02:44:29.421Z,17.38
2022-08-19T02:46:56.574Z,17.37
2022-08-19T02:49:24.674Z,17.38
2022-08-19T02:51:52.739Z,17.37
2022-08-19T02:54:20.839Z,17.37
2022-08-19T02:56:48.896Z,17.37
2022-08-19T02:59:16.889Z,17.37
2022-08-19T03:01:44.953Z,17.32
2022-08-19T03:04:17.219Z,17.28
2022-08-19T03:06:47.381Z,17.28
2022-08-19T03:09:16.505Z,17.26
2022-08-19T03:11:44.775Z,17.25
2022-08-19T03:14:14.109Z,17.24
2022-08-19T03:16:48.878Z,17.27
2022-08-19T03:19:19.559Z,17.25
2022-08-19T03:21:48.551Z,17.26
2022-08-19T03:24:18.370Z,17.24
2022-08-19T03:26:52.474Z,17.24
2022-08-19T03:29:30.841Z,17.25
2022-08-19T03:32:02.143Z,17.24
2022-08-19T03:34:35.387Z,17.16
2022-08-19T03:37:10.434Z,17.15
2022-08-19T03:39:39.098Z,17.15
2022-08-19T03:42:32.651Z,17.20
2022-08-19T03:44:55.468Z,17.19
2022-08-19T03:47:23.583Z,17.18
2022-08-19T03:49:51.641Z,17.15
2022-08-19T03:52:19.668Z,17.12
2022-08-19T03:54:47.688Z,17.14
2022-08-19T03:57:15.692Z,17.08
2022-08-19T03:59:44.584Z,17.13
2022-08-19T04:02:14.003Z,17.11
2022-08-19T04:04:44.913Z,17.11
2022-08-19T04:07:17.321Z,17.13
2022-08-19T04:09:45.656Z,17.17
2022-08-19T04:12:13.717Z,17.22
2022-08-19T04:14:42.288Z,17.26
2022-08-19T04:17:10.312Z,17.26
2022-08-19T04:19:40.705Z,17.30
2022-08-19T04:22:08.904Z,17.34
2022-08-19T04:24:37.014Z,17.40
2022-08-19T04:27:07.220Z,17.51
2022-08-19T04:29:35.482Z,17.50
2022-08-19T04:32:09.430Z,17.53
2022-08-19T04:35:01.244Z,17.57
2022-08-19T04:37:35.421Z,17.59
2022-08-19T04:40:27.875Z,17.62
2022-08-19T04:42:56.138Z,17.69
2022-08-19T04:45:27.619Z,17.72
2022-08-19T04:47:58.161Z,17.82
2022-08-19T04:50:45.937Z,17.89
2022-08-19T04:53:14.008Z,17.97
2022-08-19T04:55:43.517Z,18.03
2022-08-19T04:58:11.804Z,18.06
2022-08-19T05:00:41.237Z,18.15
2022-08-19T05:03:09.596Z,18.19
2022-08-19T05:05:44.613Z,18.22
2022-08-19T05:08:15.312Z,18.30
2022-08-19T05:10:43.849Z,18.38
2022-08-19T05:13:12.027Z,18.40
2022-08-19T05:15:40.098Z,18.45
2022-08-19T05:18:26.810Z,18.52
2022-08-19T05:21:13.260Z,18.63
2022-08-19T05:23:42.192Z,18.73
2022-08-19T05:26:12.075Z,18.83
2022-08-19T05:28:40.188Z,18.93
2022-08-19T05:31:08.678Z,19.03
2022-08-19T05:33:37.012Z,19.06
2022-08-19T05:36:09.947Z,19.15
2022-08-19T05:38:39.470Z,19.22
2022-08-19T05:41:12.263Z,19.33
2022-08-19T05:43:41.397Z,19.38
2022-08-19T05:46:17.029Z,19.46
2022-08-19T05:48:45.606Z,19.62
2022-08-19T05:51:14.305Z,19.69
2022-08-19T05:53:46.778Z,19.85
2022-08-19T05:56:19.535Z,19.94
2022-08-19T05:58:47.636Z,20.02
2022-08-19T06:01:18.388Z,20.09
2022-08-19T06:03:47.179Z,20.19
2022-08-19T06:06:17.384Z,20.31
2022-08-19T06:08:51.742Z,20.38
2022-08-19T06:11:26.558Z,20.48
2022-08-19T06:14:01.506Z,20.57
2022-08-19T06:16:31.353Z,20.72
2022-08-19T06:19:02.043Z,20.85
2022-08-19T06:21:31.444Z,20.98
2022-08-19T06:24:00.442Z,21.15
2022-08-19T06:26:30.516Z,21.22
2022-08-19T06:28:58.852Z,21.31
2022-08-19T06:31:29.468Z,21.41
2022-08-19T06:33:57.511Z,21.47
2022-08-19T06:36:34.841Z,21.51
2022-08-19T06:39:06.980Z,21.53
2022-08-19T06:41:48.806Z,21.58
2022-08-19T06:44:21.751Z,21.64
2022-08-19T06:46:53.547Z,21.72
2022-08-19T06:49:24.211Z,21.80
2022-08-19T06:51:52.669Z,21.89
2022-08-19T06:54:21.960Z,22.00
2022-08-19T06:56:51.689Z,22.12
2022-08-19T06:59:23.851Z,22.24
2022-08-19T07:01:55.332Z,22.34
2022-08-19T07:04:26.626Z,22.50
2022-08-19T07:07:00.967Z,22.58
2022-08-19T07:09:58.555Z,22.72
2022-08-19T07:12:36.129Z,22.83
2022-08-19T07:15:09.616Z,22.92
2022-08-19T07:17:41.918Z,23.08
2022-08-19T07:20:11.793Z,23.24
2022-08-19T07:22:41.365Z,23.33
2022-08-19T07:25:11.038Z,23.48
2022-08-19T07:27:46.343Z,23.61
2022-08-19T07:30:14.918Z,23.78
2022-08-19T07:32:43.546Z,23.93
2022-08-19T07:35:12.816Z,24.03
2022-08-19T07:37:45.254Z,24.15
2022-08-19T07:40:14.950Z,24.25
2022-08-19T07:42:45.275Z,24.37
2022-08-19T07:45:13.736Z,24.44
2022-08-19T07:47:49.242Z,24.54
2022-08-19T07:50:21.325Z,24.57
2022-08-19T07:52:50.908Z,24.58
2022-08-19T07:55:42.453Z,24.73
2022-08-19T07:58:16.077Z,24.86
2022-08-19T08:00:48.379Z,24.96
2022-08-19T08:03:19.604Z,25.12
2022-08-19T08:06:08.859Z,25.30
2022-08-19T08:08:48.154Z,25.46
2022-08-19T08:11:21.325Z,25.60
2022-08-19T08:14:00.868Z,25.76
2022-08-19T08:16:46.747Z,25.93
2022-08-19T08:19:20.639Z,26.15
2022-08-19T08:21:56.984Z,26.33
2022-08-19T08:24:28.614Z,26.45
2022-08-19T08:26:59.723Z,26.57
2022-08-19T08:29:34.574Z,26.68
2022-08-19T08:32:14.129Z,26.74
2022-08-19T08:34:43.779Z,26.86
2022-08-19T08:37:11.955Z,26.94
2022-08-19T08:39:43.274Z,26.99
2022-08-19T08:42:27.910Z,27.03
2022-08-19T08:44:59.559Z,27.13
2022-08-19T08:47:33.968Z,27.22
2022-08-19T08:50:22.406Z,27.36
2022-08-19T08:52:58.015Z,27.53
2022-08-19T08:55:36.929Z,27.69
2022-08-19T08:58:22.071Z,27.89
2022-08-19T09:00:51.068Z,28.11
2022-08-19T09:03:23.482Z,28.28
2022-08-19T09:06:44.701Z,28.39
2022-08-19T09:09:45.471Z,28.44
2022-08-19T09:12:26.891Z,28.46
2022-08-19T09:15:01.559Z,28.63
2022-08-19T09:17:39.697Z,28.72
2022-08-19T09:20:20.723Z,28.89
2022-08-19T09:22:50.392Z,29.03
2022-08-19T09:25:26.993Z,29.13
2022-08-19T09:28:02.277Z,29.28
2022-08-19T09:30:40.637Z,29.38
2022-08-19T09:33:10.445Z,29.60
2022-08-19T09:35:50.166Z,29.73
2022-08-19T09:38:22.650Z,29.87
2022-08-19T09:40:51.000Z,30.00
2022-08-19T09:43:32.566Z,30.16
2022-08-19T09:46:07.660Z,30.23
2022-08-19T09:48:42.142Z,30.29
2022-08-19T09:51:17.256Z,30.38
2022-08-19T09:53:46.779Z,30.55
2022-08-19T09:56:15.188Z,30.61
2022-08-19T09:58:43.837Z,30.74
2022-08-19T10:01:18.322Z,30.94
2022-08-19T10:03:53.746Z,31.22
2022-08-19T10:06:46.755Z,31.59
2022-08-19T10:09:18.415Z,31.94
2022-08-19T10:12:06.174Z,31.97
2022-08-19T10:14:36.633Z,31.91
2022-08-19T10:17:17.673Z,32.15
2022-08-19T10:19:55.187Z,32.44
2022-08-19T10:22:25.691Z,32.48
2022-08-19T10:24:56.910Z,32.47
2022-08-19T10:27:26.505Z,32.47
2022-08-19T10:29:54.971Z,32.86
2022-08-19T10:32:33.873Z,33.15
2022-08-19T10:35:09.137Z,32.91
2022-08-19T10:37:47.800Z,33.09
2022-08-19T10:40:29.556Z,33.50
2022-08-19T10:42:57.879Z,33.82
2022-08-19T10:45:29.929Z,33.89
2022-08-19T10:48:07.202Z,34.32
2022-08-19T10:50:58.590Z,34.43
2022-08-19T10:53:27.281Z,34.25
2022-08-19T10:56:17.599Z,34.38
2022-08-19T10:58:45.956Z,33.94
2022-08-19T11:01:17.508Z,33.90
2022-08-19T11:03:46.482Z,34.41
2022-08-19T11:06:15.096Z,34.43
2022-08-19T11:08:46.486Z,34.71
2022-08-19T11:11:15.819Z,34.60
2022-08-19T11:13:47.033Z,34.63
2022-08-19T11:16:18.636Z,35.04
2022-08-19T11:18:52.282Z,35.36
2022-08-19T11:21:26.921Z,35.18
2022-08-19T11:23:58.003Z,35.34
2022-08-19T11:26:26.860Z,35.69
2022-08-19T11:28:56.726Z,35.68
2022-08-19T11:31:32.300Z,35.06
2022-08-19T11:34:04.345Z,35.32
2022-08-19T11:36:36.232Z,35.96
2022-08-19T11:39:07.760Z,36.19
2022-08-19T11:41:36.485Z,36.09
2022-08-19T11:44:05.806Z,36.33
2022-08-19T11:46:35.904Z,36.68
2022-08-19T11:49:13.880Z,36.71
2022-08-19T11:51:46.984Z,36.35
2022-08-19T11:54:17.850Z,36.16
2022-08-19T11:56:48.538Z,36.32
2022-08-19T11:59:17.256Z,36.80
2022-08-19T12:01:45.601Z,36.78
2022-08-19T12:04:14.442Z,37.10
2022-08-19T12:06:42.815Z,36.81
2022-08-19T12:09:12.455Z,36.73
2022-08-19T12:11:42.732Z,37.24
2022-08-19T12:14:15.285Z,37.73
2022-08-19T12:16:49.235Z,38.08
2022-08-19T12:19:22.233Z,37.90
2022-08-19T12:21:52.024Z,38.36
2022-08-19T12:24:24.525Z,38.61
2022-08-19T12:26:55.034Z,37.91
2022-08-19T12:29:30.712Z,37.80
2022-08-19T12:32:05.775Z,37.80
2022-08-19T12:34:40.620Z,38.08
2022-08-19T12:37:09.149Z,37.85
2022-08-19T12:39:41.513Z,37.61
2022-08-19T12:42:11.867Z,37.89
2022-08-19T12:44:42.708Z,38.15
2022-08-19T12:47:14.464Z,38.62
2022-08-19T12:49:53.387Z,39.14
2022-08-19T12:52:28.352Z,39.09
2022-08-19T12:54:58.494Z,39.08
2022-08-19T12:57:32.338Z,38.53
2022-08-19T13:00:05.789Z,38.76
2022-08-19T13:02:38.961Z,39.21
2022-08-19T13:05:12.900Z,39.24
2022-08-19T13:07:42.056Z,39.33
2022-08-19T13:10:21.411Z,39.40
2022-08-19T13:12:52.427Z,39.10
2022-08-19T13:15:24.152Z,39.57
2022-08-19T13:17:54.925Z,39.23
2022-08-19T13:20:24.059Z,39.56
2022-08-19T13:22:52.763Z,38.86
2022-08-19T13:25:21.982Z,38.69
2022-08-19T13:27:51.873Z,39.70
2022-08-19T13:30:39.491Z,39.61
2022-08-19T13:33:11.962Z,39.49
2022-08-19T13:35:43.677Z,39.62
2022-08-19T13:38:12.578Z,40.13
2022-08-19T13:40:51.219Z,40.43
2022-08-19T13:43:33.979Z,40.49
2022-08-19T13:46:14.444Z,40.62
2022-08-19T13:48:45.898Z,40.53
2022-08-19T13:51:14.376Z,40.39
2022-08-19T13:53:48.134Z,40.22
2022-08-19T13:56:26.310Z,40.45
2022-08-19T13:58:54.819Z,40.23
2022-08-19T14:01:28.505Z,40.53
2022-08-19T14:03:56.725Z,39.82
2022-08-19T14:06:26.424Z,39.56
2022-08-19T14:08:54.949Z,39.97
2022-08-19T14:11:24.396Z,40.36
2022-08-19T14:13:52.727Z,40.75
2022-08-19T14:16:22.751Z,41.27
2022-08-19T14:18:53.372Z,41.05
2022-08-19T14:21:23.670Z,41.60
2022-08-19T14:23:52.913Z,41.76
2022-08-19T14:26:23.454Z,42.04
2022-08-19T14:28:53.861Z,42.31
2022-08-19T14:31:28.975Z,42.03
2022-08-19T14:33:59.491Z,41.44
2022-08-19T14:36:29.272Z,40.79
2022-08-19T14:38:58.898Z,40.29
2022-08-19T14:41:27.513Z,41.04
2022-08-19T14:43:57.285Z,41.41
2022-08-19T14:46:28.264Z,41.56
2022-08-19T14:48:59.980Z,41.54
2022-08-19T14:51:28.760Z,41.49
2022-08-19T14:53:57.227Z,42.00
2022-08-19T14:56:28.825Z,42.24
2022-08-19T14:59:00.442Z,41.91
2022-08-19T15:01:29.331Z,41.56
2022-08-19T15:03:57.699Z,41.64
2022-08-19T15:06:30.203Z,41.30
2022-08-19T15:09:04.334Z,41.18
2022-08-19T15:11:34.073Z,42.03
2022-08-19T15:14:03.336Z,42.46
2022-08-19T15:16:31.426Z,42.35
2022-08-19T15:19:01.035Z,42.35
2022-08-19T15:21:30.668Z,42.13
2022-08-19T15:23:59.776Z,42.02
2022-08-19T15:26:32.491Z,41.59
2022-08-19T15:29:02.380Z,41.52
2022-08-19T15:31:38.244Z,41.75
2022-08-19T15:34:08.238Z,42.01
2022-08-19T15:36:38.897Z,42.01
2022-08-19T15:39:07.527Z,41.48
2022-08-19T15:41:37.152Z,41.79
2022-08-19T15:44:12.358Z,41.84
2022-08-19T15:46:44.262Z,41.69
2022-08-19T15:49:15.706Z,41.59
2022-08-19T15:51:46.903Z,41.42
2022-08-19T15:54:21.554Z,41.46
2022-08-19T15:57:10.028Z,41.32
2022-08-19T15:59:58.041Z,41.22
2022-08-19T16:02:53.610Z,40.72
2022-08-19T16:05:44.590Z,40.17
2022-08-19T16:08:13.256Z,40.39
2022-08-19T16:10:43.093Z,40.53
2022-08-19T16:13:11.296Z,39.90
2022-08-19T16:15:42.191Z,39.84
2022-08-19T16:18:10.511Z,39.82
2022-08-19T16:20:38.915Z,39.84
2022-08-19T16:23:09.166Z,39.56
2022-08-19T16:25:39.492Z,38.92
2022-08-19T16:28:10.048Z,38.67
2022-08-19T16:30:41.032Z,38.51
2022-08-19T16:33:10.786Z,38.33
2022-08-19T16:35:39.128Z,38.16
2022-08-19T16:38:07.304Z,37.72
2022-08-19T16:40:37.942Z,37.22
2022-08-19T16:43:05.979Z,36.67
2022-08-19T16:45:34.120Z,36.46
2022-08-19T16:48:04.237Z,36.02
2022-08-19T16:50:48.638Z,35.42
2022-08-19T16:53:21.313Z,34.96
2022-08-19T16:55:51.108Z,34.55
2022-08-19T16:58:20.661Z,34.25
2022-08-19T17:01:03.291Z,33.85
2022-08-19T17:03:36.959Z,33.45
2022-08-19T17:06:18.930Z,33.19
2022-08-19T17:08:54.362Z,32.85
2022-08-19T17:11:24.556Z,32.60
2022-08-19T17:13:54.690Z,32.35
2022-08-19T17:16:25.812Z,32.08
2022-08-19T17:18:58.799Z,31.80
2022-08-19T17:21:32.348Z,31.55
2022-08-19T17:24:02.531Z,31.28
2022-08-19T17:26:31.454Z,30.97
2022-08-19T17:29:00.536Z,30.75
2022-08-19T17:31:30.819Z,30.57
2022-08-19T17:34:00.360Z,30.39
2022-08-19T17:36:31.316Z,30.20
2022-08-19T17:39:05.030Z,30.03
2022-08-19T17:41:34.444Z,29.80
2022-08-19T17:44:03.671Z,29.61
2022-08-19T17:46:32.750Z,29.40
2022-08-19T17:49:00.977Z,29.19
2022-08-19T17:51:35.127Z,29.03
2022-08-19T17:54:06.635Z,28.83
2022-08-19T17:56:34.778Z,28.68
2022-08-19T17:59:02.890Z,28.54
2022-08-19T18:01:52.521Z,28.40
2022-08-19T18:04:25.285Z,28.26
2022-08-19T18:06:55.615Z,28.12
2022-08-19T18:09:41.209Z,27.98
2022-08-19T18:12:13.566Z,27.87
2022-08-19T18:14:42.311Z,27.76
2022-08-19T18:17:13.347Z,27.64
2022-08-19T18:19:44.212Z,27.52
2022-08-19T18:22:30.180Z,27.42
2022-08-19T18:24:59.857Z,27.29
2022-08-19T18:27:29.399Z,27.19
2022-08-19T18:29:59.452Z,27.09
2022-08-19T18:32:34.308Z,27.00
2022-08-19T18:35:18.624Z,26.90
2022-08-19T18:37:46.871Z,26.79
2022-08-19T18:40:39.132Z,26.70
2022-08-19T18:43:27.390Z,26.61
2022-08-19T18:46:27.841Z,26.51
2022-08-19T18:49:05.227Z,26.37
2022-08-19T18:51:34.597Z,26.22
2022-08-19T18:54:03.280Z,26.00
2022-08-19T18:56:37.517Z,25.81
2022-08-19T18:59:09.774Z,25.62
2022-08-19T19:01:40.803Z,25.37
2022-08-19T19:04:13.915Z,25.15
2022-08-19T19:06:43.473Z,24.91
2022-08-19T19:09:15.557Z,24.70
2022-08-19T19:11:48.428Z,24.51
2022-08-19T19:14:45.546Z,24.36
2022-08-19T19:17:14.374Z,24.19
2022-08-19T19:19:44.077Z,24.09
2022-08-19T19:22:17.287Z,23.99
2022-08-19T19:24:45.545Z,23.90
2022-08-19T19:27:15.565Z,23.81
2022-08-19T19:29:47.401Z,23.75
2022-08-19T19:32:26.942Z,23.68
2022-08-19T19:34:55.447Z,23.62
2022-08-19T19:37:23.637Z,23.57
2022-08-19T19:39:52.698Z,23.53
2022-08-19T19:42:23.975Z,23.48
2022-08-19T19:44:56.247Z,23.40
2022-08-19T19:47:29.126Z,23.32
2022-08-19T19:50:13.650Z,23.23
2022-08-19T19:52:46.378Z,23.12
2022-08-19T19:55:18.607Z,23.01
2022-08-19T19:57:49.236Z,22.92
2022-08-19T20:00:19.193Z,22.82
2022-08-19T20:02:50.413Z,22.74
2022-08-19T20:05:23.598Z,22.66
2022-08-19T20:08:12.197Z,22.62
2022-08-19T20:10:43.065Z,22.54
2022-08-19T20:13:15.677Z,22.48
2022-08-19T20:15:44.230Z,22.43
2022-08-19T20:18:16.378Z,22.36
2022-08-19T20:20:47.126Z,22.29
2022-08-19T20:23:15.325Z,22.23
2022-08-19T20:25:43.643Z,22.19
2022-08-19T20:28:13.179Z,22.15
2022-08-19T20:30:44.939Z,22.11
2022-08-19T20:33:14.954Z,22.04
2022-08-19T20:35:43.686Z,21.98
2022-08-19T20:38:12.524Z,21.88
2022-08-19T20:40:41.441Z,21.80
2022-08-19T20:43:11.952Z,21.73
2022-08-19T20:45:40.847Z,21.64
2022-08-19T20:48:10.616Z,21.59
2022-08-19T20:50:39.257Z,21.54
2022-08-19T20:53:16.255Z,21.47
2022-08-19T20:55:46.313Z,21.43
2022-08-19T20:58:14.845Z,21.37
2022-08-19T21:00:46.264Z,21.32
2022-08-19T21:03:21.331Z,21.30
2022-08-19T21:05:49.600Z,21.26
2022-08-19T21:08:21.010Z,21.20
2022-08-19T21:10:51.056Z,21.17
2022-08-19T21:13:20.597Z,21.12
2022-08-19T21:15:50.674Z,21.05
2022-08-19T21:18:20.991Z,21.00
2022-08-19T21:20:50.491Z,20.95
2022-08-19T21:23:28.581Z,20.89
2022-08-19T21:25:59.723Z,20.81
2022-08-19T21:28:29.864Z,20.78
2022-08-19T21:31:06.863Z,20.75
2022-08-19T21:33:35.059Z,20.73
2022-08-19T21:36:04.485Z,20.69
2022-08-19T21:38:33.135Z,20.65
2022-08-19T21:41:05.734Z,20.62
2022-08-19T21:43:37.768Z,20.59
2022-08-19T21:46:06.462Z,20.55
2022-08-19T21:48:34.849Z,20.51
2022-08-19T21:51:03.221Z,20.49
2022-08-19T21:53:34.525Z,20.46
2022-08-19T21:56:06.429Z,20.42
2022-08-19T21:58:39.030Z,20.36
2022-08-19T22:01:08.127Z,20.30
2022-08-19T22:03:38.827Z,20.22
2022-08-19T22:06:08.531Z,20.18
2022-08-19T22:08:36.916Z,20.14
2022-08-19T22:11:05.227Z,20.11
2022-08-19T22:13:40.507Z,20.05
2022-08-19T22:16:12.636Z,20.02
2022-08-19T22:18:40.852Z,19.99
2022-08-19T22:21:11.886Z,19.97
2022-08-19T22:23:42.496Z,19.96
2022-08-19T22:26:12.211Z,19.96
2022-08-19T22:28:44.276Z,19.96
2022-08-19T22:31:12.934Z,19.93
2022-08-19T22:33:41.684Z,19.93
2022-08-19T22:36:09.784Z,19.93
2022-08-19T22:38:38.513Z,19.92
2022-08-19T22:41:08.044Z,19.90
2022-08-19T22:43:37.699Z,19.87
2022-08-19T22:46:15.047Z,19.83
2022-08-19T22:48:47.786Z,19.80
2022-08-19T22:51:38.281Z,19.79
2022-08-19T22:54:06.322Z,19.75
2022-08-19T22:56:35.762Z,19.72
2022-08-19T22:59:04.234Z,19.70
2022-08-19T23:01:32.334Z,19.67
2022-08-19T23:04:03.728Z,19.65
2022-08-19T23:06:35.045Z,19.65
2022-08-19T23:09:07.280Z,19.64
2022-08-19T23:11:41.895Z,19.64
2022-08-19T23:14:11.462Z,19.65
2022-08-19T23:16:41.709Z,19.66
2022-08-19T23:19:10.850Z,19.68
2022-08-19T23:21:43.744Z,19.69
2022-08-19T23:24:12.445Z,19.71
2022-08-19T23:27:01.752Z,19.72
2022-08-19T23:29:48.914Z,19.70
2022-08-19T23:32:19.804Z,19.70
2022-08-19T23:34:48.342Z,19.69
2022-08-19T23:37:16.430Z,19.64
2022-08-19T23:39:45.430Z,19.61
2022-08-19T23:42:15.079Z,19.55
2022-08-19T23:44:51.285Z,19.49
2022-08-19T23:47:23.630Z,19.42
2022-08-19T23:49:51.973Z,19.37
2022-08-19T23:52:20.195Z,19.33
2022-08-19T23:54:48.243Z,19.30
2022-08-19T23:57:16.976Z,19.27
2022-08-19T23:59:45.753Z,19.23
